createdAt,value
2023-03-10T00:00:05.889Z,9.07
2023-03-10T00:03:08.415Z,8.55
2023-03-10T00:06:13.104Z,9.90
2023-03-10T00:09:15.590Z,9.43
2023-03-10T00:12:17.800Z,9.82
2023-03-10T00:15:20.354Z,8.95
2023-03-10T00:18:22.829Z,9.32
2023-03-10T00:21:28.557Z,9.50
2023-03-10T00:24:30.994Z,8.85
2023-03-10T00:27:33.986Z,10.37
2023-03-10T00:30:36.189Z,10.43
2023-03-10T00:33:39.075Z,9.98
2023-03-10T00:36:41.282Z,11.20
2023-03-10T00:39:45.192Z,9.75
2023-03-10T00:42:47.377Z,10.63
2023-03-10T00:45:49.848Z,9.98
2023-03-10T00:48:52.460Z,10.43
2023-03-10T00:51:54.944Z,10.88
2023-03-10T00:54:57.106Z,10.55
2023-03-10T00:57:59.604Z,10.52
2023-03-10T01:01:03.403Z,10.77
2023-03-10T01:04:18.811Z,10.27
2023-03-10T01:07:21.027Z,10.32
2023-03-10T01:10:23.532Z,10.55
2023-03-10T01:13:25.706Z,11.12
2023-03-10T01:16:29.587Z,10.88
2023-03-10T01:22:36.143Z,10.93
2023-03-10T01:25:38.276Z,10.37
2023-03-10T01:28:41.002Z,11.93
2023-03-10T01:31:43.295Z,10.77
2023-03-10T01:34:45.869Z,11.30
2023-03-10T01:37:48.038Z,11.57
2023-03-10T01:40:51.104Z,12.73
2023-03-10T01:43:56.054Z,11.10
2023-03-10T01:46:59.354Z,10.70
2023-03-10T01:50:04.078Z,11.43
2023-03-10T01:53:07.233Z,10.57
2023-03-10T01:56:09.436Z,10.35
2023-03-10T01:59:12.712Z,10.73
2023-03-10T02:02:14.915Z,12.45
2023-03-10T02:05:17.744Z,10.80
2023-03-10T02:08:21.919Z,11.88
2023-03-10T02:11:24.674Z,11.02
2023-03-10T02:14:27.387Z,11.38
2023-03-10T02:17:30.660Z,11.90
2023-03-10T02:21:11.423Z,11.38
2023-03-10T02:24:41.899Z,10.60
2023-03-10T02:27:44.470Z,11.38
2023-03-10T02:30:50.352Z,11.18
2023-03-10T02:33:53.170Z,11.00
2023-03-10T02:36:55.633Z,10.88
2023-03-10T02:39:58.851Z,11.57
2023-03-10T02:43:07.699Z,10.35
2023-03-10T02:46:10.665Z,10.05
2023-03-10T02:49:13.588Z,14.05
2023-03-10T02:52:28.360Z,14.48
2023-03-10T02:55:30.597Z,10.30
2023-03-10T02:58:33.596Z,11.40
2023-03-10T03:01:36.803Z,11.48
2023-03-10T03:04:41.026Z,11.52
2023-03-10T03:07:43.296Z,11.15
2023-03-10T03:10:45.885Z,10.25
2023-03-10T03:13:48.175Z,12.98
2023-03-10T03:16:50.922Z,11.98
2023-03-10T03:19:53.696Z,11.13
2023-03-10T03:22:57.505Z,11.10
2023-03-10T03:26:00.303Z,12.32
2023-03-10T03:29:02.819Z,12.05
2023-03-10T03:32:05.936Z,10.60
2023-03-10T03:35:15.875Z,11.07
2023-03-10T03:38:18.425Z,10.75
2023-03-10T03:41:21.473Z,9.60
2023-03-10T03:44:23.787Z,10.00
2023-03-10T03:47:26.620Z,9.70
2023-03-10T03:50:28.857Z,9.57
2023-03-10T03:53:33.667Z,10.93
2023-03-10T03:56:36.019Z,9.70
2023-03-10T03:59:38.504Z,8.82
2023-03-10T04:02:41.086Z,10.35
2023-03-10T04:05:44.934Z,9.70
2023-03-10T04:08:50.266Z,9.90
2023-03-10T04:11:53.286Z,8.95
2023-03-10T04:14:55.831Z,9.33
2023-03-10T04:17:58.844Z,8.23
2023-03-10T04:21:01.872Z,8.65
2023-03-10T04:24:06.448Z,9.13
2023-03-10T04:27:09.670Z,10.93
2023-03-10T04:30:14.560Z,9.85
2023-03-10T04:33:17.860Z,9.73
2023-03-10T04:39:24.192Z,8.85
2023-03-10T04:42:27.995Z,8.90
2023-03-10T04:48:33.743Z,8.90
2023-03-10T04:51:36.482Z,8.10
2023-03-10T04:54:39.035Z,8.98
2023-03-10T04:57:41.290Z,8.13
2023-03-10T05:01:00.359Z,9.25
2023-03-10T05:04:06.127Z,7.60
2023-03-10T05:07:08.944Z,8.25
2023-03-10T05:10:12.311Z,8.80
2023-03-10T05:13:15.011Z,7.47
2023-03-10T05:16:20.547Z,8.33
2023-03-10T05:19:23.625Z,8.73
2023-03-10T05:22:26.651Z,8.85
2023-03-10T05:25:30.310Z,10.05
2023-03-10T05:28:32.648Z,8.35
2023-03-10T05:31:36.091Z,9.38
2023-03-10T05:34:38.790Z,8.68
2023-03-10T05:37:43.814Z,8.48
2023-03-10T05:40:46.404Z,9.13
2023-03-10T05:43:49.130Z,10.35
2023-03-10T05:46:52.592Z,9.10
2023-03-10T05:49:56.500Z,9.02
2023-03-10T05:53:00.026Z,8.23
2023-03-10T05:56:14.299Z,10.20
2023-03-10T05:59:18.021Z,9.30
2023-03-10T06:02:21.088Z,8.07
2023-03-10T06:05:23.561Z,9.18
2023-03-10T06:08:28.112Z,7.87
2023-03-10T06:11:30.795Z,7.57
2023-03-10T06:14:32.999Z,8.77
2023-03-10T06:17:35.516Z,7.87
2023-03-10T06:20:39.358Z,7.32
2023-03-10T06:23:41.816Z,8.05
2023-03-10T06:26:43.973Z,8.18
2023-03-10T06:29:49.442Z,8.93
2023-03-10T06:32:52.396Z,9.13
2023-03-10T06:35:55.178Z,10.23
2023-03-10T06:38:57.970Z,8.63
2023-03-10T06:42:01.191Z,9.05
2023-03-10T06:45:04.160Z,8.70
2023-03-10T06:48:06.662Z,9.10
2023-03-10T06:54:14.445Z,8.15
2023-03-10T06:57:18.753Z,8.43
2023-03-10T07:00:23.212Z,8.85
2023-03-10T07:03:26.385Z,8.48
2023-03-10T07:06:29.099Z,8.48
2023-03-10T07:09:31.479Z,9.75
2023-03-10T07:12:33.968Z,9.17
2023-03-10T07:15:39.478Z,10.63
2023-03-10T07:18:42.595Z,10.48
2023-03-10T07:21:44.760Z,9.38
2023-03-10T07:24:47.298Z,9.77
2023-03-10T07:27:49.637Z,10.30
2023-03-10T07:30:52.423Z,10.07
2023-03-10T07:33:54.644Z,9.93
2023-03-10T07:36:57.145Z,10.93
2023-03-10T07:39:59.357Z,9.10
2023-03-10T07:43:01.917Z,10.65
2023-03-10T07:46:10.276Z,10.88
2023-03-10T07:49:12.940Z,9.48
2023-03-10T07:52:18.254Z,9.30
2023-03-10T07:55:21.596Z,9.57
2023-03-10T07:58:24.633Z,10.18
2023-03-10T08:01:27.223Z,9.27
2023-03-10T08:04:30.458Z,10.05
2023-03-10T08:07:32.720Z,11.35
2023-03-10T08:10:35.585Z,8.98
2023-03-10T08:13:39.062Z,10.05
2023-03-10T08:16:42.068Z,9.57
2023-03-10T08:19:45.772Z,9.98
2023-03-10T08:25:50.503Z,9.43
2023-03-10T08:28:52.977Z,9.25
2023-03-10T08:31:55.173Z,9.35
2023-03-10T08:34:57.640Z,8.93
2023-03-10T08:38:00.003Z,9.43
2023-03-10T08:41:14.275Z,9.48
2023-03-10T08:44:18.002Z,10.25
2023-03-10T08:47:20.668Z,9.27
2023-03-10T08:50:22.955Z,9.27
2023-03-10T08:53:25.660Z,9.43
2023-03-10T08:56:28.537Z,9.85
2023-03-10T08:59:30.991Z,9.43
2023-03-10T09:02:33.849Z,9.38
2023-03-10T09:05:36.680Z,9.05
2023-03-10T09:08:39.773Z,8.45
2023-03-10T09:11:43.043Z,9.07
2023-03-10T09:14:46.339Z,9.57
2023-03-10T09:20:51.368Z,8.98
2023-03-10T09:23:54.144Z,9.63
2023-03-10T09:26:56.509Z,10.25
2023-03-10T09:30:01.156Z,10.00
2023-03-10T09:33:05.669Z,7.95
2023-03-10T09:36:08.678Z,7.45
2023-03-10T09:39:10.914Z,7.80
2023-03-10T09:42:18.900Z,6.60
2023-03-10T09:45:32.044Z,6.28
2023-03-10T09:48:53.200Z,6.80
2023-03-10T09:51:56.000Z,6.78
2023-03-10T09:55:19.498Z,6.03
2023-03-10T09:58:32.467Z,5.93
2023-03-10T10:01:35.673Z,5.18
2023-03-10T10:04:41.683Z,5.45
2023-03-10T10:07:53.314Z,6.12
2023-03-10T10:10:58.776Z,5.12
2023-03-10T10:14:29.907Z,5.15
2023-03-10T10:18:02.890Z,4.62
2023-03-10T10:21:21.349Z,4.87
2023-03-10T10:24:25.038Z,3.90
2023-03-10T10:27:31.883Z,4.62
2023-03-10T10:30:40.265Z,4.50
2023-03-10T10:34:02.484Z,3.58
2023-03-10T10:37:27.601Z,3.22
2023-03-10T10:40:34.884Z,4.75
2023-03-10T10:43:45.413Z,4.68
2023-03-10T10:46:56.548Z,5.18
2023-03-10T10:50:25.641Z,5.07
2023-03-10T10:53:34.239Z,5.78
2023-03-10T10:56:36.901Z,4.97
2023-03-10T10:59:42.010Z,5.22
2023-03-10T11:02:45.439Z,4.60
2023-03-10T11:05:47.668Z,4.97
2023-03-10T11:08:51.505Z,4.57
2023-03-10T11:12:06.091Z,4.68
2023-03-10T11:15:20.269Z,4.70
2023-03-10T11:18:34.530Z,3.85
2023-03-10T11:21:44.888Z,4.70
2023-03-10T11:25:04.687Z,4.22
2023-03-10T11:28:19.227Z,3.42
2023-03-10T11:31:48.735Z,4.00
2023-03-10T11:34:55.690Z,4.62
2023-03-10T11:38:23.964Z,3.17
2023-03-10T11:41:33.000Z,3.17
2023-03-10T11:44:48.447Z,3.62
2023-03-10T11:48:19.532Z,4.40
2023-03-10T11:51:50.585Z,3.50
2023-03-10T11:55:07.015Z,3.37
2023-03-10T11:58:24.485Z,4.68
2023-03-10T12:01:38.322Z,3.47
2023-03-10T12:04:45.156Z,3.47
2023-03-10T12:07:51.305Z,3.65
2023-03-10T12:10:54.468Z,3.80
2023-03-10T12:14:01.048Z,3.00
2023-03-10T12:17:05.435Z,2.62
2023-03-10T12:20:12.930Z,2.65
2023-03-10T12:23:24.832Z,2.90
2023-03-10T12:26:39.294Z,2.33
2023-03-10T12:29:43.717Z,2.55
2023-03-10T12:32:47.823Z,2.17
2023-03-10T12:35:54.116Z,2.25
2023-03-10T12:39:00.923Z,2.15
2023-03-10T12:42:26.265Z,2.90
2023-03-10T12:45:32.306Z,3.00
2023-03-10T12:48:39.819Z,2.30
2023-03-10T12:51:48.269Z,2.80
2023-03-10T12:55:18.006Z,2.37
2023-03-10T12:58:25.318Z,1.62
2023-03-10T13:01:35.159Z,2.28
2023-03-10T13:04:41.368Z,2.05
2023-03-10T13:07:49.542Z,2.22
2023-03-10T13:10:56.325Z,2.10
2023-03-10T13:14:03.164Z,2.37
2023-03-10T13:17:06.460Z,2.37
2023-03-10T13:20:15.510Z,2.45
2023-03-10T13:23:24.589Z,1.80
2023-03-10T13:26:27.843Z,1.85
2023-03-10T13:29:30.066Z,1.73
2023-03-10T13:32:38.170Z,1.77
2023-03-10T13:35:42.767Z,2.25
2023-03-10T13:38:45.690Z,2.40
2023-03-10T13:41:50.888Z,2.75
2023-03-10T13:44:55.714Z,2.00
2023-03-10T13:48:00.755Z,1.45
2023-03-10T13:51:05.681Z,1.92
2023-03-10T13:54:19.480Z,2.22
2023-03-10T13:57:31.465Z,2.35
2023-03-10T14:00:37.467Z,3.08
2023-03-10T14:03:52.347Z,3.08
2023-03-10T14:07:13.914Z,2.53
2023-03-10T14:10:19.934Z,2.80
2023-03-10T14:13:41.807Z,2.62
2023-03-10T14:16:48.546Z,2.22
2023-03-10T14:19:51.012Z,1.85
2023-03-10T14:22:53.689Z,2.03
2023-03-10T14:25:57.599Z,1.67
2023-03-10T14:29:01.901Z,2.53
2023-03-10T14:32:04.360Z,2.28
2023-03-10T14:35:12.018Z,2.57
2023-03-10T14:38:14.393Z,2.47
2023-03-10T14:41:21.800Z,2.40
2023-03-10T14:44:24.019Z,2.15
2023-03-10T14:47:26.771Z,2.78
2023-03-10T14:50:29.696Z,2.00
2023-03-10T14:53:33.393Z,2.60
2023-03-10T14:56:35.538Z,2.65
2023-03-10T14:59:39.530Z,1.92
2023-03-10T15:02:41.756Z,2.92
2023-03-10T15:05:48.654Z,3.17
2023-03-10T15:08:51.449Z,2.60
2023-03-10T15:11:55.374Z,2.95
2023-03-10T15:18:00.143Z,4.12
2023-03-10T15:21:03.385Z,3.60
2023-03-10T15:27:12.567Z,2.83
2023-03-10T15:30:23.963Z,3.12
2023-03-10T15:33:26.491Z,3.47
2023-03-10T15:36:31.900Z,4.20
2023-03-10T15:39:36.902Z,3.55
2023-03-10T15:42:41.372Z,3.83
2023-03-10T15:45:50.238Z,3.33
2023-03-10T15:48:52.870Z,3.17
2023-03-10T15:51:55.091Z,3.40
2023-03-10T15:54:57.591Z,4.32
2023-03-10T15:57:59.840Z,4.47
2023-03-10T16:01:11.075Z,4.65
2023-03-10T16:04:13.687Z,3.80
2023-03-10T16:07:15.900Z,4.12
2023-03-10T16:10:20.457Z,4.53
2023-03-10T16:13:23.878Z,3.58
2023-03-10T16:16:26.740Z,4.40
2023-03-10T16:19:29.113Z,3.83
2023-03-10T16:22:31.659Z,3.45
2023-03-10T16:25:34.023Z,4.30
2023-03-10T16:28:39.499Z,4.50
2023-03-10T16:31:42.991Z,3.85
2023-03-10T16:34:45.668Z,4.05
2023-03-10T16:37:47.853Z,3.22
2023-03-10T16:40:50.993Z,5.12
2023-03-10T16:43:54.637Z,3.70
2023-03-10T16:46:57.235Z,3.28
2023-03-10T16:49:59.436Z,3.62
2023-03-10T16:53:01.938Z,4.28
2023-03-10T16:56:04.778Z,4.28
2023-03-10T16:59:07.615Z,3.83
2023-03-10T17:02:15.320Z,4.12
2023-03-10T17:05:18.042Z,4.85
2023-03-10T17:08:21.347Z,4.37
2023-03-10T17:14:27.393Z,4.72
2023-03-10T17:17:32.384Z,5.05
2023-03-10T17:20:34.804Z,4.20
2023-03-10T17:23:37.388Z,5.57
2023-03-10T17:26:40.116Z,5.10
2023-03-10T17:29:42.625Z,5.40
2023-03-10T17:32:48.074Z,6.18
2023-03-10T17:35:50.660Z,5.03
2023-03-10T17:38:54.654Z,6.97
2023-03-10T17:41:57.491Z,5.93
2023-03-10T17:44:59.926Z,6.00
2023-03-10T17:48:02.445Z,5.73
2023-03-10T17:51:05.384Z,5.57
2023-03-10T17:54:07.914Z,5.78
2023-03-10T17:57:10.109Z,6.40
2023-03-10T18:00:13.342Z,4.97
2023-03-10T18:03:16.708Z,5.28
2023-03-10T18:06:22.660Z,5.95
2023-03-10T18:09:25.159Z,5.78
2023-03-10T18:12:27.311Z,5.10
2023-03-10T18:15:29.767Z,4.85
2023-03-10T18:18:34.572Z,5.75
2023-03-10T18:21:37.145Z,4.78
2023-03-10T18:24:39.304Z,5.03
2023-03-10T18:27:41.977Z,4.30
2023-03-10T18:30:46.303Z,4.35
2023-03-10T18:33:49.347Z,6.60
2023-03-10T18:36:51.888Z,4.77
2023-03-10T18:39:54.376Z,3.17
2023-03-10T18:42:57.100Z,3.58
2023-03-10T18:46:00.307Z,3.20
2023-03-10T18:49:02.668Z,2.95
2023-03-10T18:52:05.212Z,3.10
2023-03-10T18:55:07.986Z,2.65
2023-03-10T18:58:10.724Z,3.28
2023-03-10T19:01:14.958Z,2.85
2023-03-10T19:04:17.562Z,3.37
2023-03-10T19:07:20.471Z,3.15
2023-03-10T19:10:22.983Z,2.78
2023-03-10T19:13:27.393Z,3.22
2023-03-10T19:16:30.032Z,4.00
2023-03-10T19:19:32.227Z,3.33
2023-03-10T19:22:36.117Z,3.77
2023-03-10T19:25:38.389Z,3.67
2023-03-10T19:28:40.943Z,3.97
2023-03-10T19:31:43.183Z,3.35
2023-03-10T19:34:46.371Z,4.15
2023-03-10T19:37:48.768Z,4.50
2023-03-10T19:40:51.245Z,4.15
2023-03-10T19:43:54.623Z,3.70
2023-03-10T19:50:00.691Z,3.45
2023-03-10T19:53:03.237Z,5.37
2023-03-10T19:56:07.640Z,4.30
2023-03-10T19:59:10.239Z,4.40
2023-03-10T20:02:14.632Z,4.55
2023-03-10T20:05:17.240Z,4.95
2023-03-10T20:08:19.377Z,5.55
2023-03-10T20:11:22.262Z,5.87
2023-03-10T20:14:25.868Z,5.05
2023-03-10T20:17:28.391Z,5.07
2023-03-10T20:20:31.416Z,5.00
2023-03-10T20:23:34.992Z,5.85
2023-03-10T20:26:37.339Z,4.50
2023-03-10T20:29:39.931Z,5.30
2023-03-10T20:32:43.083Z,7.30
2023-03-10T20:35:45.980Z,4.87
2023-03-10T20:38:48.441Z,5.05
2023-03-10T20:41:51.083Z,5.37
2023-03-10T20:44:53.246Z,6.55
2023-03-10T20:47:56.308Z,5.22
2023-03-10T20:50:59.055Z,6.07
2023-03-10T20:54:01.644Z,5.22
2023-03-10T20:57:03.892Z,5.05
2023-03-10T21:00:07.658Z,5.75
2023-03-10T21:03:09.824Z,4.80
2023-03-10T21:06:12.268Z,6.35
2023-03-10T21:09:14.712Z,5.12
2023-03-10T21:12:18.679Z,5.43
2023-03-10T21:18:23.247Z,6.32
2023-03-10T21:21:25.365Z,6.32
2023-03-10T21:24:27.842Z,7.12
2023-03-10T21:27:31.397Z,7.22
2023-03-10T21:30:34.194Z,6.75
2023-03-10T21:33:36.849Z,7.05
2023-03-10T21:36:39.351Z,6.15
2023-03-10T21:39:41.819Z,6.97
2023-03-10T21:42:44.202Z,6.35
2023-03-10T21:45:46.639Z,5.10
2023-03-10T21:48:48.878Z,4.75
2023-03-10T21:51:51.564Z,4.93
2023-03-10T21:54:53.743Z,5.40
2023-03-10T21:57:56.190Z,4.68
2023-03-10T22:00:58.386Z,5.15
2023-03-10T22:04:00.905Z,4.75
2023-03-10T22:07:03.042Z,5.15
2023-03-10T22:10:07.456Z,3.85
2023-03-10T22:13:09.656Z,4.15
2023-03-10T22:16:16.099Z,3.75
2023-03-10T22:19:18.350Z,3.70
2023-03-10T22:22:22.217Z,3.17
2023-03-10T22:28:27.012Z,2.90
2023-03-10T22:31:29.227Z,2.50
2023-03-10T22:34:31.690Z,3.55
2023-03-10T22:37:33.858Z,2.10
2023-03-10T22:40:36.318Z,1.75
2023-03-10T22:43:38.560Z,1.50
2023-03-10T22:46:45.581Z,1.45
2023-03-10T22:49:47.844Z,1.40
2023-03-10T22:52:50.302Z,1.50
2023-03-10T22:55:52.592Z,2.20
2023-03-10T22:58:55.616Z,1.35
2023-03-10T23:01:57.812Z,1.33
2023-03-10T23:05:00.247Z,1.55
2023-03-10T23:08:02.440Z,1.23
2023-03-10T23:11:12.406Z,1.55
2023-03-10T23:14:14.919Z,1.25
2023-03-10T23:17:17.468Z,1.00
2023-03-10T23:20:19.758Z,0.90
2023-03-10T23:23:22.177Z,1.05
2023-03-10T23:26:24.412Z,0.70
2023-03-10T23:29:26.895Z,0.80
2023-03-10T23:32:29.101Z,0.40
2023-03-10T23:35:32.823Z,0.70
2023-03-10T23:38:35.936Z,0.30
2023-03-10T23:41:38.381Z,0.28
2023-03-10T23:44:40.537Z,0.50
2023-03-10T23:47:43.812Z,0.13
2023-03-10T23:50:47.956Z,0.57
2023-03-10T23:53:50.404Z,0.32
2023-03-10T23:56:52.579Z,0.30
2023-03-10T23:59:55.030Z,0.30
